sensor_id;sensor_type;location;lat;lon;timestamp;pressure;altitude;pressure_sealevel;temperature;humidity
34031;BME280;20319;28.466;-16.274;2023-11-21T00:00:19;95757.00;;;20.91;32.85
34031;BME280;20319;28.466;-16.274;2023-11-21T00:02:45;95579.03;;;19.63;33.22
34031;BME280;20319;28.466;-16.274;2023-11-21T00:05:12;95725.41;;;20.73;32.81
34031;BME280;20319;28.466;-16.274;2023-11-21T00:07:40;95691.03;;;20.21;33.39
34031;BME280;20319;28.466;-16.274;2023-11-21T00:10:06;95659.66;;;20.23;32.97
34031;BME280;20319;28.466;-16.274;2023-11-21T00:12:34;95721.22;;;20.50;32.95
34031;BME280;20319;28.466;-16.274;2023-11-21T00:15:00;95346.31;;;18.24;32.95
34031;BME280;20319;28.466;-16.274;2023-11-21T00:17:27;95675.03;;;20.19;32.79
34031;BME280;20319;28.466;-16.274;2023-11-21T00:19:52;95474.06;;;18.97;32.61
34031;BME280;20319;28.466;-16.274;2023-11-21T00:22:18;95746.34;;;20.55;32.99
34031;BME280;20319;28.466;-16.274;2023-11-21T00:24:44;95709.44;;;20.24;32.68
34031;BME280;20319;28.466;-16.274;2023-11-21T00:27:10;95725.19;;;20.44;32.21
34031;BME280;20319;28.466;-16.274;2023-11-21T00:29:35;95736.41;;;20.51;32.61
34031;BME280;20319;28.466;-16.274;2023-11-21T00:32:01;95763.34;;;20.70;31.62
34031;BME280;20319;28.466;-16.274;2023-11-21T00:34:27;95703.53;;;20.30;31.82
34031;BME280;20319;28.466;-16.274;2023-11-21T00:36:52;95639.31;;;19.73;31.66
34031;BME280;20319;28.466;-16.274;2023-11-21T00:39:18;95726.31;;;20.43;31.70
34031;BME280;20319;28.466;-16.274;2023-11-21T00:41:44;95767.69;;;20.71;32.10
34031;BME280;20319;28.466;-16.274;2023-11-21T00:44:10;95751.81;;;20.64;32.21
34031;BME280;20319;28.466;-16.274;2023-11-21T00:46:36;95683.84;;;20.25;32.89
34031;BME280;20319;28.466;-16.274;2023-11-21T00:49:02;95731.63;;;20.57;32.80
34031;BME280;20319;28.466;-16.274;2023-11-21T00:51:30;95721.63;;;20.35;32.54
34031;BME280;20319;28.466;-16.274;2023-11-21T00:53:55;95764.13;;;20.62;32.93
34031;BME280;20319;28.466;-16.274;2023-11-21T00:56:21;95774.44;;;20.82;33.13
34031;BME280;20319;28.466;-16.274;2023-11-21T00:58:47;95723.97;;;20.67;33.27
34031;BME280;20319;28.466;-16.274;2023-11-21T01:01:15;95278.97;;;17.78;34.28
34031;BME280;20319;28.466;-16.274;2023-11-21T01:03:41;95709.38;;;20.54;34.24
34031;BME280;20319;28.466;-16.274;2023-11-21T01:06:07;95394.56;;;18.57;34.46
34031;BME280;20319;28.466;-16.274;2023-11-21T01:08:34;95697.69;;;20.54;34.41
34031;BME280;20319;28.466;-16.274;2023-11-21T01:10:59;95486.13;;;19.22;34.31
34031;BME280;20319;28.466;-16.274;2023-11-21T01:13:25;95657.13;;;20.27;34.61
34031;BME280;20319;28.466;-16.274;2023-11-21T01:15:55;95462.94;;;19.07;34.41
34031;BME280;20319;28.466;-16.274;2023-11-21T01:18:20;95724.44;;;20.61;34.55
34031;BME280;20319;28.466;-16.274;2023-11-21T01:20:46;95721.75;;;20.69;34.85
34031;BME280;20319;28.466;-16.274;2023-11-21T01:23:15;95651.38;;;20.20;34.91
34031;BME280;20319;28.466;-16.274;2023-11-21T01:25:41;95680.56;;;20.45;35.15
34031;BME280;20319;28.466;-16.274;2023-11-21T01:28:06;95672.97;;;20.25;35.29
34031;BME280;20319;28.466;-16.274;2023-11-21T01:30:32;95482.16;;;19.19;35.62
34031;BME280;20319;28.466;-16.274;2023-11-21T01:32:58;95736.44;;;20.68;35.76
34031;BME280;20319;28.466;-16.274;2023-11-21T01:35:24;95696.56;;;20.46;36.18
34031;BME280;20319;28.466;-16.274;2023-11-21T01:37:49;95450.63;;;18.70;36.60
34031;BME280;20319;28.466;-16.274;2023-11-21T01:40:15;95748.13;;;20.60;36.43
34031;BME280;20319;28.466;-16.274;2023-11-21T01:42:41;95667.19;;;20.26;36.98
34031;BME280;20319;28.466;-16.274;2023-11-21T01:45:09;95326.31;;;18.11;36.91
34031;BME280;20319;28.466;-16.274;2023-11-21T01:47:36;95717.88;;;20.53;37.15
34031;BME280;20319;28.466;-16.274;2023-11-21T01:50:02;95684.47;;;20.22;37.42
34031;BME280;20319;28.466;-16.274;2023-11-21T01:52:36;95702.47;;;20.40;37.41
34031;BME280;20319;28.466;-16.274;2023-11-21T01:55:02;95689.75;;;20.18;37.35
34031;BME280;20319;28.466;-16.274;2023-11-21T01:57:28;95598.69;;;19.68;37.70
34031;BME280;20319;28.466;-16.274;2023-11-21T01:59:56;95607.03;;;19.72;37.68
34031;BME280;20319;28.466;-16.274;2023-11-21T02:02:24;95400.44;;;18.37;38.03
34031;BME280;20319;28.466;-16.274;2023-11-21T02:04:49;95664.78;;;19.86;37.78
34031;BME280;20319;28.466;-16.274;2023-11-21T02:07:15;95446.44;;;18.64;38.06
34031;BME280;20319;28.466;-16.274;2023-11-21T02:09:40;95519.22;;;18.93;38.20
34031;BME280;20319;28.466;-16.274;2023-11-21T02:12:08;95754.63;;;20.42;38.28
34031;BME280;20319;28.466;-16.274;2023-11-21T02:14:35;95458.41;;;18.63;37.86
34031;BME280;20319;28.466;-16.274;2023-11-21T02:17:02;95729.16;;;20.29;37.24
34031;BME280;20319;28.466;-16.274;2023-11-21T02:19:29;95745.84;;;20.45;37.71
34031;BME280;20319;28.466;-16.274;2023-11-21T02:21:57;95465.59;;;18.68;37.84
34031;BME280;20319;28.466;-16.274;2023-11-21T02:24:29;95502.91;;;18.84;38.16
34031;BME280;20319;28.466;-16.274;2023-11-21T02:26:55;95273.56;;;17.42;37.79
34031;BME280;20319;28.466;-16.274;2023-11-21T02:29:21;95423.88;;;18.33;37.78
34031;BME280;20319;28.466;-16.274;2023-11-21T02:31:56;95456.63;;;18.59;37.71
34031;BME280;20319;28.466;-16.274;2023-11-21T02:34:22;95707.06;;;20.00;37.24
34031;BME280;20319;28.466;-16.274;2023-11-21T02:36:48;95498.09;;;18.81;37.22
34031;BME280;20319;28.466;-16.274;2023-11-21T02:39:17;95775.53;;;20.33;36.82
34031;BME280;20319;28.466;-16.274;2023-11-21T02:41:44;95765.47;;;20.33;36.70
34031;BME280;20319;28.466;-16.274;2023-11-21T02:44:10;95570.41;;;19.30;36.79
34031;BME280;20319;28.466;-16.274;2023-11-21T02:46:36;95479.72;;;18.78;36.96
34031;BME280;20319;28.466;-16.274;2023-11-21T02:49:03;95658.59;;;19.94;36.60
34031;BME280;20319;28.466;-16.274;2023-11-21T02:51:29;95650.38;;;19.77;36.75
34031;BME280;20319;28.466;-16.274;2023-11-21T02:53:56;95501.22;;;18.97;36.95
34031;BME280;20319;28.466;-16.274;2023-11-21T02:56:26;95536.75;;;19.17;36.87
34031;BME280;20319;28.466;-16.274;2023-11-21T02:58:52;95523.09;;;19.00;37.14
34031;BME280;20319;28.466;-16.274;2023-11-21T03:01:18;95479.75;;;18.87;37.14
34031;BME280;20319;28.466;-16.274;2023-11-21T03:03:43;95515.09;;;18.95;37.11
34031;BME280;20319;28.466;-16.274;2023-11-21T03:06:09;95672.81;;;19.91;37.46
34031;BME280;20319;28.466;-16.274;2023-11-21T03:08:35;95491.03;;;18.80;37.59
34031;BME280;20319;28.466;-16.274;2023-11-21T03:11:01;95269.72;;;17.43;37.80
34031;BME280;20319;28.466;-16.274;2023-11-21T03:13:28;95505.63;;;18.84;37.92
34031;BME280;20319;28.466;-16.274;2023-11-21T03:15:56;95702.16;;;20.11;37.84
34031;BME280;20319;28.466;-16.274;2023-11-21T03:18:21;95711.19;;;20.20;38.32
34031;BME280;20319;28.466;-16.274;2023-11-21T03:20:48;95528.53;;;19.00;38.07
34031;BME280;20319;28.466;-16.274;2023-11-21T03:23:13;95663.66;;;19.87;38.56
34031;BME280;20319;28.466;-16.274;2023-11-21T03:25:40;95507.75;;;18.74;38.40
34031;BME280;20319;28.466;-16.274;2023-11-21T03:28:06;95732.63;;;20.21;38.60
34031;BME280;20319;28.466;-16.274;2023-11-21T03:30:33;95726.44;;;20.38;38.35
34031;BME280;20319;28.466;-16.274;2023-11-21T03:32:59;95392.59;;;18.27;38.89
34031;BME280;20319;28.466;-16.274;2023-11-21T03:35:24;95656.06;;;19.97;38.71
34031;BME280;20319;28.466;-16.274;2023-11-21T03:37:51;95655.56;;;19.95;38.70
34031;BME280;20319;28.466;-16.274;2023-11-21T03:40:16;95633.94;;;19.82;38.97
34031;BME280;20319;28.466;-16.274;2023-11-21T03:42:42;95670.97;;;19.78;39.36
34031;BME280;20319;28.466;-16.274;2023-11-21T03:45:08;95749.97;;;20.34;39.19
34031;BME280;20319;28.466;-16.274;2023-11-21T03:47:34;95737.72;;;20.14;39.61
34031;BME280;20319;28.466;-16.274;2023-11-21T03:49:59;95663.97;;;19.85;39.71
34031;BME280;20319;28.466;-16.274;2023-11-21T03:52:26;95677.63;;;19.94;39.91
34031;BME280;20319;28.466;-16.274;2023-11-21T03:54:53;95667.56;;;19.94;40.69
34031;BME280;20319;28.466;-16.274;2023-11-21T03:57:20;95714.06;;;20.15;41.03
34031;BME280;20319;28.466;-16.274;2023-11-21T03:59:46;95733.72;;;20.20;41.46
34031;BME280;20319;28.466;-16.274;2023-11-21T04:02:11;95659.94;;;19.74;42.13
34031;BME280;20319;28.466;-16.274;2023-11-21T04:04:37;95731.47;;;19.92;42.40
34031;BME280;20319;28.466;-16.274;2023-11-21T04:07:03;95547.91;;;18.85;42.78
34031;BME280;20319;28.466;-16.274;2023-11-21T04:09:29;95576.19;;;18.93;43.36
34031;BME280;20319;28.466;-16.274;2023-11-21T04:11:55;95592.44;;;19.29;43.61
34031;BME280;20319;28.466;-16.274;2023-11-21T04:14:21;95746.38;;;20.16;43.72
34031;BME280;20319;28.466;-16.274;2023-11-21T04:16:46;95506.09;;;18.64;44.26
34031;BME280;20319;28.466;-16.274;2023-11-21T04:19:12;95544.84;;;18.78;44.57
34031;BME280;20319;28.466;-16.274;2023-11-21T04:21:43;95734.84;;;20.19;45.04
34031;BME280;20319;28.466;-16.274;2023-11-21T04:24:09;95504.69;;;18.67;45.64
34031;BME280;20319;28.466;-16.274;2023-11-21T04:26:35;95564.13;;;18.99;46.01
34031;BME280;20319;28.466;-16.274;2023-11-21T04:29:00;95771.63;;;20.17;46.19
34031;BME280;20319;28.466;-16.274;2023-11-21T04:31:26;95287.16;;;17.29;46.19
34031;BME280;20319;28.466;-16.274;2023-11-21T04:33:52;95449.13;;;18.20;46.60
34031;BME280;20319;28.466;-16.274;2023-11-21T04:36:17;95746.25;;;19.99;47.04
34031;BME280;20319;28.466;-16.274;2023-11-21T04:38:43;95478.59;;;18.35;47.27
34031;BME280;20319;28.466;-16.274;2023-11-21T04:41:09;95503.78;;;18.49;47.59
34031;BME280;20319;28.466;-16.274;2023-11-21T04:43:34;95287.59;;;17.09;47.99
34031;BME280;20319;28.466;-16.274;2023-11-21T04:46:00;95698.25;;;19.42;48.02
34031;BME280;20319;28.466;-16.274;2023-11-21T04:48:27;95481.25;;;18.27;48.47
34031;BME280;20319;28.466;-16.274;2023-11-21T04:50:53;95429.53;;;18.01;48.83
34031;BME280;20319;28.466;-16.274;2023-11-21T04:53:18;95543.59;;;18.62;48.64
34031;BME280;20319;28.466;-16.274;2023-11-21T04:55:44;95538.72;;;18.51;48.85
34031;BME280;20319;28.466;-16.274;2023-11-21T04:58:11;95520.38;;;18.34;49.38
34031;BME280;20319;28.466;-16.274;2023-11-21T05:00:37;95716.16;;;19.65;49.07
34031;BME280;20319;28.466;-16.274;2023-11-21T05:03:03;95748.13;;;19.68;49.45
34031;BME280;20319;28.466;-16.274;2023-11-21T05:05:30;95412.16;;;17.80;49.71
34031;BME280;20319;28.466;-16.274;2023-11-21T05:07:56;95685.88;;;19.50;49.71
34031;BME280;20319;28.466;-16.274;2023-11-21T05:10:21;95750.88;;;19.99;50.06
34031;BME280;20319;28.466;-16.274;2023-11-21T05:12:47;95708.25;;;19.55;49.01
34031;BME280;20319;28.466;-16.274;2023-11-21T05:15:16;95764.81;;;20.06;49.71
34031;BME280;20319;28.466;-16.274;2023-11-21T05:17:43;95583.28;;;18.80;50.21
34031;BME280;20319;28.466;-16.274;2023-11-21T05:20:15;95755.25;;;20.08;49.75
34031;BME280;20319;28.466;-16.274;2023-11-21T05:22:50;95680.03;;;19.65;49.72
34031;BME280;20319;28.466;-16.274;2023-11-21T05:25:16;95593.16;;;18.98;49.69
34031;BME280;20319;28.466;-16.274;2023-11-21T05:27:47;95733.63;;;20.03;50.18
34031;BME280;20319;28.466;-16.274;2023-11-21T05:30:14;95698.53;;;19.85;50.13
34031;BME280;20319;28.466;-16.274;2023-11-21T05:32:40;95520.47;;;18.65;49.84
34031;BME280;20319;28.466;-16.274;2023-11-21T05:35:08;95725.91;;;19.97;50.11
34031;BME280;20319;28.466;-16.274;2023-11-21T05:37:38;95627.94;;;19.41;50.11
34031;BME280;20319;28.466;-16.274;2023-11-21T05:40:07;95727.50;;;19.89;48.88
34031;BME280;20319;28.466;-16.274;2023-11-21T05:42:34;95509.44;;;18.61;49.14
34031;BME280;20319;28.466;-16.274;2023-11-21T05:45:01;95783.38;;;20.26;49.47
34031;BME280;20319;28.466;-16.274;2023-11-21T05:50:04;95742.13;;;20.32;46.42
34031;BME280;20319;28.466;-16.274;2023-11-21T05:52:31;95704.97;;;19.97;46.18
34031;BME280;20319;28.466;-16.274;2023-11-21T05:54:58;95706.63;;;20.07;45.86
34031;BME280;20319;28.466;-16.274;2023-11-21T05:57:23;95694.19;;;19.84;45.08
34031;BME280;20319;28.466;-16.274;2023-11-21T05:59:49;95593.34;;;19.24;44.61
34031;BME280;20319;28.466;-16.274;2023-11-21T06:02:14;95679.66;;;19.88;43.55
34031;BME280;20319;28.466;-16.274;2023-11-21T06:04:40;95804.56;;;20.46;43.65
34031;BME280;20319;28.466;-16.274;2023-11-21T06:07:05;95716.19;;;20.35;43.37
34031;BME280;20319;28.466;-16.274;2023-11-21T06:09:31;95713.44;;;20.26;42.87
34031;BME280;20319;28.466;-16.274;2023-11-21T06:11:57;95676.91;;;19.80;41.60
34031;BME280;20319;28.466;-16.274;2023-11-21T06:14:22;95712.38;;;20.05;39.74
34031;BME280;20319;28.466;-16.274;2023-11-21T06:16:48;95665.28;;;19.88;38.40
34031;BME280;20319;28.466;-16.274;2023-11-21T06:19:17;95717.19;;;20.39;38.09
34031;BME280;20319;28.466;-16.274;2023-11-21T06:21:45;95770.59;;;20.74;36.93
34031;BME280;20319;28.466;-16.274;2023-11-21T06:24:11;95746.47;;;20.50;36.48
34031;BME280;20319;28.466;-16.274;2023-11-21T06:26:38;95503.19;;;19.13;36.79
34031;BME280;20319;28.466;-16.274;2023-11-21T06:29:03;95585.59;;;19.70;36.56
34031;BME280;20319;28.466;-16.274;2023-11-21T06:31:29;95736.63;;;20.72;35.77
34031;BME280;20319;28.466;-16.274;2023-11-21T06:33:55;95733.91;;;20.72;35.60
34031;BME280;20319;28.466;-16.274;2023-11-21T06:36:21;95531.19;;;19.23;35.89
34031;BME280;20319;28.466;-16.274;2023-11-21T06:38:47;95737.41;;;20.55;35.36
34031;BME280;20319;28.466;-16.274;2023-11-21T06:41:13;95489.03;;;19.25;34.83
34031;BME280;20319;28.466;-16.274;2023-11-21T06:43:41;95589.09;;;19.71;34.59
34031;BME280;20319;28.466;-16.274;2023-11-21T06:46:11;95717.25;;;20.73;34.10
34031;BME280;20319;28.466;-16.274;2023-11-21T06:48:37;95732.03;;;20.89;33.83
34031;BME280;20319;28.466;-16.274;2023-11-21T06:51:04;95638.75;;;20.41;33.76
34031;BME280;20319;28.466;-16.274;2023-11-21T06:53:29;95575.59;;;19.88;33.85
34031;BME280;20319;28.466;-16.274;2023-11-21T06:55:55;95754.50;;;21.12;33.83
34031;BME280;20319;28.466;-16.274;2023-11-21T06:58:20;95561.34;;;19.82;33.75
34031;BME280;20319;28.466;-16.274;2023-11-21T07:00:46;95797.00;;;21.30;33.04
34031;BME280;20319;28.466;-16.274;2023-11-21T07:03:14;95565.38;;;19.93;33.00
34031;BME280;20319;28.466;-16.274;2023-11-21T16:54:05;95796.13;;;23.07;49.48
34031;BME280;20319;28.466;-16.274;2023-11-21T16:56:31;95524.06;;;21.36;50.43
34031;BME280;20319;28.466;-16.274;2023-11-21T16:58:57;95811.00;;;23.18;51.38
34031;BME280;20319;28.466;-16.274;2023-11-21T17:01:23;95820.00;;;23.27;51.58
34031;BME280;20319;28.466;-16.274;2023-11-21T17:03:50;95815.63;;;23.26;51.62
34031;BME280;20319;28.466;-16.274;2023-11-21T17:06:17;95442.53;;;20.85;51.63
34031;BME280;20319;28.466;-16.274;2023-11-21T17:08:42;95769.50;;;22.95;51.38
34031;BME280;20319;28.466;-16.274;2023-11-21T17:11:10;95825.47;;;23.27;50.76
34031;BME280;20319;28.466;-16.274;2023-11-21T17:13:39;95833.66;;;23.27;50.37
34031;BME280;20319;28.466;-16.274;2023-11-21T17:16:05;95812.47;;;22.86;49.85
34031;BME280;20319;28.466;-16.274;2023-11-21T17:18:31;95526.00;;;21.27;49.63
34031;BME280;20319;28.466;-16.274;2023-11-21T17:20:57;95861.59;;;23.24;49.05
34031;BME280;20319;28.466;-16.274;2023-11-21T17:23:22;95842.00;;;23.22;48.79
34031;BME280;20319;28.466;-16.274;2023-11-21T17:25:48;95795.19;;;22.74;48.03
34031;BME280;20319;28.466;-16.274;2023-11-21T17:28:13;95836.63;;;23.05;47.21
34031;BME280;20319;28.466;-16.274;2023-11-21T17:30:39;95739.72;;;22.44;47.23
34031;BME280;20319;28.466;-16.274;2023-11-21T17:33:05;95548.94;;;21.26;47.18
34031;BME280;20319;28.466;-16.274;2023-11-21T17:35:33;95443.56;;;20.55;46.10
34031;BME280;20319;28.466;-16.274;2023-11-21T17:37:58;95760.81;;;22.27;46.46
34031;BME280;20319;28.466;-16.274;2023-11-21T17:40:25;95587.50;;;21.45;45.94
34031;BME280;20319;28.466;-16.274;2023-11-21T17:42:52;95829.59;;;22.95;45.77
34031;BME280;20319;28.466;-16.274;2023-11-21T17:45:17;95788.81;;;22.61;45.49
34031;BME280;20319;28.466;-16.274;2023-11-21T17:47:43;95783.25;;;22.41;45.36
34031;BME280;20319;28.466;-16.274;2023-11-21T17:50:09;95789.03;;;22.31;45.29
34031;BME280;20319;28.466;-16.274;2023-11-21T17:52:35;95805.22;;;22.44;45.37
34031;BME280;20319;28.466;-16.274;2023-11-21T17:55:02;95538.75;;;20.38;45.20
34031;BME280;20319;28.466;-16.274;2023-11-21T17:57:33;95902.16;;;22.67;45.08
34031;BME280;20319;28.466;-16.274;2023-11-21T18:00:01;95846.19;;;22.27;45.04
34031;BME280;20319;28.466;-16.274;2023-11-21T18:02:30;95864.91;;;22.63;45.08
34031;BME280;20319;28.466;-16.274;2023-11-21T18:04:57;95871.03;;;22.60;44.69
34031;BME280;20319;28.466;-16.274;2023-11-21T18:07:26;95814.28;;;22.19;44.59
34031;BME280;20319;28.466;-16.274;2023-11-21T18:09:52;95823.75;;;22.22;44.03
34031;BME280;20319;28.466;-16.274;2023-11-21T18:12:18;95842.19;;;22.25;44.00
34031;BME280;20319;28.466;-16.274;2023-11-21T18:14:45;95337.44;;;19.01;43.21
34031;BME280;20319;28.466;-16.274;2023-11-21T18:17:14;95558.44;;;20.35;43.06
34031;BME280;20319;28.466;-16.274;2023-11-21T18:19:45;95229.63;;;18.29;42.48
34031;BME280;20319;28.466;-16.274;2023-11-21T18:22:11;95884.72;;;22.43;41.73
34031;BME280;20319;28.466;-16.274;2023-11-21T18:24:37;95687.72;;;21.06;41.90
34031;BME280;20319;28.466;-16.274;2023-11-21T18:27:04;95802.91;;;21.74;42.14
34031;BME280;20319;28.466;-16.274;2023-11-21T18:29:30;95474.13;;;19.45;42.79
34031;BME280;20319;28.466;-16.274;2023-11-21T18:31:56;95497.41;;;19.93;42.86
34031;BME280;20319;28.466;-16.274;2023-11-21T18:34:22;95879.75;;;22.28;42.91
34031;BME280;20319;28.466;-16.274;2023-11-21T18:36:49;95824.59;;;21.71;42.04
34031;BME280;20319;28.466;-16.274;2023-11-21T18:39:16;95860.50;;;21.98;42.27
34031;BME280;20319;28.466;-16.274;2023-11-21T18:41:46;95813.19;;;21.60;43.33
34031;BME280;20319;28.466;-16.274;2023-11-21T18:44:11;95864.03;;;21.90;43.53
34031;BME280;20319;28.466;-16.274;2023-11-21T18:46:38;95892.88;;;21.74;44.10
34031;BME280;20319;28.466;-16.274;2023-11-21T18:49:03;95889.06;;;21.84;44.05
34031;BME280;20319;28.466;-16.274;2023-11-21T18:51:29;95329.75;;;18.25;44.07
34031;BME280;20319;28.466;-16.274;2023-11-21T18:53:55;95833.69;;;21.49;44.81
34031;BME280;20319;28.466;-16.274;2023-11-21T18:56:21;95882.78;;;21.75;44.76
34031;BME280;20319;28.466;-16.274;2023-11-21T18:58:52;95838.31;;;21.15;47.17
34031;BME280;20319;28.466;-16.274;2023-11-21T19:01:28;95887.59;;;21.69;48.82
34031;BME280;20319;28.466;-16.274;2023-11-21T19:03:55;95755.72;;;20.80;48.74
34031;BME280;20319;28.466;-16.274;2023-11-21T19:06:23;95907.59;;;21.39;49.35
34031;BME280;20319;28.466;-16.274;2023-11-21T19:08:50;95864.00;;;21.39;50.82
34031;BME280;20319;28.466;-16.274;2023-11-21T19:11:16;95923.38;;;21.68;51.10
34031;BME280;20319;28.466;-16.274;2023-11-21T19:13:42;95879.38;;;21.35;52.68
34031;BME280;20319;28.466;-16.274;2023-11-21T19:16:09;95617.97;;;19.58;53.35
34031;BME280;20319;28.466;-16.274;2023-11-21T19:18:38;95529.00;;;19.02;53.98
34031;BME280;20319;28.466;-16.274;2023-11-21T19:21:06;95938.38;;;21.48;54.02
34031;BME280;20319;28.466;-16.274;2023-11-21T19:23:36;95884.34;;;20.94;54.37
34031;BME280;20319;28.466;-16.274;2023-11-21T19:26:02;95900.44;;;21.04;54.65
34031;BME280;20319;28.466;-16.274;2023-11-21T19:28:27;95965.91;;;21.38;55.63
34031;BME280;20319;28.466;-16.274;2023-11-21T19:30:53;95928.63;;;21.08;55.59
34031;BME280;20319;28.466;-16.274;2023-11-21T19:33:20;95881.38;;;20.74;55.88
34031;BME280;20319;28.466;-16.274;2023-11-21T19:35:46;95950.78;;;21.15;56.32
34031;BME280;20319;28.466;-16.274;2023-11-21T19:38:11;95736.34;;;19.29;56.09
34031;BME280;20319;28.466;-16.274;2023-11-21T19:40:38;95225.28;;;16.65;55.99
34031;BME280;20319;28.466;-16.274;2023-11-21T19:43:05;95259.13;;;16.76;55.85
34031;BME280;20319;28.466;-16.274;2023-11-21T19:45:30;95625.44;;;19.00;56.03
34031;BME280;20319;28.466;-16.274;2023-11-21T19:48:00;95949.56;;;20.69;55.08
34031;BME280;20319;28.466;-16.274;2023-11-21T19:50:26;95948.09;;;20.71;54.88
34031;BME280;20319;28.466;-16.274;2023-11-21T19:52:52;95961.44;;;21.03;54.13
34031;BME280;20319;28.466;-16.274;2023-11-21T19:55:17;95868.78;;;20.47;52.63
34031;BME280;20319;28.466;-16.274;2023-11-21T19:57:43;95931.19;;;20.74;51.73
34031;BME280;20319;28.466;-16.274;2023-11-21T20:00:10;95896.00;;;20.55;49.60
34031;BME280;20319;28.466;-16.274;2023-11-21T20:02:42;95974.09;;;20.99;49.52
34031;BME280;20319;28.466;-16.274;2023-11-21T20:05:09;95919.28;;;20.70;48.31
34031;BME280;20319;28.466;-16.274;2023-11-21T20:07:35;95896.44;;;20.49;47.85
34031;BME280;20319;28.466;-16.274;2023-11-21T20:10:01;95893.53;;;20.45;47.19
34031;BME280;20319;28.466;-16.274;2023-11-21T20:12:27;95690.38;;;18.96;46.32
34031;BME280;20319;28.466;-16.274;2023-11-21T20:14:54;95989.97;;;20.53;45.46
34031;BME280;20319;28.466;-16.274;2023-11-21T20:17:21;95581.06;;;18.38;44.09
34031;BME280;20319;28.466;-16.274;2023-11-21T20:19:47;95887.03;;;20.11;43.92
34031;BME280;20319;28.466;-16.274;2023-11-21T20:22:12;95993.09;;;20.24;43.32
34031;BME280;20319;28.466;-16.274;2023-11-21T20:24:38;96018.72;;;20.68;43.06
34031;BME280;20319;28.466;-16.274;2023-11-21T20:27:04;95725.78;;;18.91;42.66
34031;BME280;20319;28.466;-16.274;2023-11-21T20:29:31;96037.06;;;20.84;42.65
34031;BME280;20319;28.466;-16.274;2023-11-21T20:31:58;95396.44;;;17.06;41.63
34031;BME280;20319;28.466;-16.274;2023-11-21T20:34:23;95667.91;;;18.82;41.50
34031;BME280;20319;28.466;-16.274;2023-11-21T20:36:50;95990.44;;;20.77;41.37
34031;BME280;20319;28.466;-16.274;2023-11-21T20:39:16;95920.31;;;20.30;40.81
34031;BME280;20319;28.466;-16.274;2023-11-21T20:41:42;95430.09;;;17.27;40.53
34031;BME280;20319;28.466;-16.274;2023-11-21T20:44:08;95976.47;;;20.70;40.57
34031;BME280;20319;28.466;-16.274;2023-11-21T20:46:44;96007.78;;;20.23;40.67
34031;BME280;20319;28.466;-16.274;2023-11-21T20:49:12;95841.56;;;19.81;40.57
34031;BME280;20319;28.466;-16.274;2023-11-21T20:51:39;95983.16;;;20.64;40.58
34031;BME280;20319;28.466;-16.274;2023-11-21T20:54:05;95339.03;;;16.55;40.25
34031;BME280;20319;28.466;-16.274;2023-11-21T20:56:32;95976.59;;;20.21;40.34
34031;BME280;20319;28.466;-16.274;2023-11-21T20:58:58;95986.81;;;20.60;40.37
34031;BME280;20319;28.466;-16.274;2023-11-21T21:01:30;96034.47;;;20.57;40.28
34031;BME280;20319;28.466;-16.274;2023-11-21T21:03:55;95947.72;;;20.33;40.62
34031;BME280;20319;28.466;-16.274;2023-11-21T21:06:21;95974.88;;;20.47;40.28
34031;BME280;20319;28.466;-16.274;2023-11-21T21:08:47;95982.41;;;20.50;40.52
34031;BME280;20319;28.466;-16.274;2023-11-21T21:11:17;95906.91;;;19.76;39.91
34031;BME280;20319;28.466;-16.274;2023-11-21T21:13:43;95585.53;;;17.94;40.39
34031;BME280;20319;28.466;-16.274;2023-11-21T21:16:08;95568.66;;;17.83;40.27
34031;BME280;20319;28.466;-16.274;2023-11-21T21:18:34;96047.13;;;20.39;40.58
34031;BME280;20319;28.466;-16.274;2023-11-21T21:21:00;95999.59;;;20.37;40.64
34031;BME280;20319;28.466;-16.274;2023-11-21T21:23:27;95537.69;;;17.48;40.50
34031;BME280;20319;28.466;-16.274;2023-11-21T21:25:53;95690.50;;;18.15;41.01
34031;BME280;20319;28.466;-16.274;2023-11-21T21:28:21;95983.47;;;20.18;41.00
34031;BME280;20319;28.466;-16.274;2023-11-21T21:30:47;95660.38;;;17.90;40.83
34031;BME280;20319;28.466;-16.274;2023-11-21T21:33:12;95919.31;;;19.68;41.08
34031;BME280;20319;28.466;-16.274;2023-11-21T21:35:38;95926.06;;;19.71;41.12
34031;BME280;20319;28.466;-16.274;2023-11-21T21:38:04;96016.75;;;20.24;40.99
34031;BME280;20319;28.466;-16.274;2023-11-21T21:40:29;96022.50;;;20.22;41.40
34031;BME280;20319;28.466;-16.274;2023-11-21T21:42:58;95997.00;;;19.83;41.31
34031;BME280;20319;28.466;-16.274;2023-11-21T21:45:24;95919.38;;;19.55;41.31
34031;BME280;20319;28.466;-16.274;2023-11-21T21:47:51;95989.50;;;20.02;41.73
34031;BME280;20319;28.466;-16.274;2023-11-21T21:50:17;95718.91;;;18.31;41.65
34031;BME280;20319;28.466;-16.274;2023-11-21T21:52:45;95968.09;;;19.87;41.84
34031;BME280;20319;28.466;-16.274;2023-11-21T21:55:11;95591.94;;;17.57;41.54
34031;BME280;20319;28.466;-16.274;2023-11-21T21:57:42;95617.44;;;17.69;41.75
34031;BME280;20319;28.466;-16.274;2023-11-21T22:00:08;95922.25;;;19.58;41.97
34031;BME280;20319;28.466;-16.274;2023-11-21T22:02:35;95984.53;;;19.68;41.86
34031;BME280;20319;28.466;-16.274;2023-11-21T22:05:02;95930.81;;;19.65;42.28
34031;BME280;20319;28.466;-16.274;2023-11-21T22:07:27;95933.38;;;19.48;42.26
34031;BME280;20319;28.466;-16.274;2023-11-21T22:09:53;95766.34;;;18.47;42.47
34031;BME280;20319;28.466;-16.274;2023-11-21T22:12:21;96055.56;;;20.16;42.57
34031;BME280;20319;28.466;-16.274;2023-11-21T22:14:47;95981.47;;;19.97;43.10
